createdAt,value
2022-09-15T00:01:51.984Z,16.17
2022-09-15T00:04:20.345Z,16.19
2022-09-15T00:06:48.427Z,16.17
2022-09-15T00:09:16.441Z,16.19
2022-09-15T00:11:48.452Z,16.19
2022-09-15T00:14:19.072Z,16.20
2022-09-15T00:16:47.382Z,16.25
2022-09-15T00:19:16.692Z,16.27
2022-09-15T00:21:44.925Z,16.28
2022-09-15T00:24:13.067Z,16.28
2022-09-15T00:26:43.298Z,16.28
2022-09-15T00:29:11.900Z,16.29
2022-09-15T00:31:39.891Z,16.28
2022-09-15T00:34:08.068Z,16.28
2022-09-15T00:36:39.686Z,16.29
2022-09-15T00:39:08.046Z,16.34
2022-09-15T00:41:36.523Z,16.33
2022-09-15T00:44:06.619Z,16.34
2022-09-15T00:46:37.295Z,16.35
2022-09-15T00:49:08.405Z,16.38
2022-09-15T00:51:42.338Z,16.40
2022-09-15T00:54:15.433Z,16.39
2022-09-15T00:56:50.929Z,16.42
2022-09-15T00:59:22.149Z,16.43
2022-09-15T01:01:56.413Z,16.44
2022-09-15T01:04:25.588Z,16.49
2022-09-15T01:07:01.154Z,16.48
2022-09-15T01:09:34.482Z,16.45
2022-09-15T01:12:05.698Z,16.49
2022-09-15T01:14:33.736Z,16.48
2022-09-15T01:17:07.164Z,16.49
2022-09-15T01:20:16.106Z,16.50
2022-09-15T01:23:05.728Z,16.48
2022-09-15T01:25:52.138Z,16.48
2022-09-15T01:28:51.541Z,16.47
2022-09-15T01:31:25.289Z,16.46
2022-09-15T01:33:58.189Z,16.44
2022-09-15T01:36:34.304Z,16.44
2022-09-15T01:41:11.635Z,16.33
2022-09-15T01:43:46.744Z,16.38
2022-09-15T01:46:16.389Z,16.38
2022-09-15T01:48:44.662Z,16.39
2022-09-15T01:51:12.901Z,16.38
2022-09-15T01:53:42.313Z,16.40
2022-09-15T01:56:13.442Z,16.42
2022-09-15T01:58:42.627Z,16.45
2022-09-15T02:01:15.343Z,16.44
2022-09-15T02:03:47.661Z,16.46
2022-09-15T02:06:22.582Z,16.45
2022-09-15T02:08:55.987Z,16.45
2022-09-15T02:11:28.204Z,16.46
2022-09-15T02:14:06.121Z,16.46
2022-09-15T02:16:37.473Z,16.52
2022-09-15T02:19:18.154Z,16.51
2022-09-15T02:21:55.282Z,16.50
2022-09-15T02:24:30.829Z,16.52
2022-09-15T02:27:02.013Z,16.51
2022-09-15T02:29:34.749Z,16.52
2022-09-15T02:32:08.688Z,16.54
2022-09-15T02:34:40.657Z,16.49
2022-09-15T02:37:10.817Z,16.55
2022-09-15T02:39:44.115Z,16.57
2022-09-15T02:42:14.145Z,16.55
2022-09-15T02:44:42.205Z,16.58
2022-09-15T02:47:10.295Z,16.59
2022-09-15T02:49:38.271Z,16.59
2022-09-15T02:52:06.784Z,16.67
2022-09-15T02:54:34.741Z,16.64
2022-09-15T02:57:02.765Z,16.62
2022-09-15T02:59:52.633Z,16.61
2022-09-15T03:02:23.510Z,16.61
2022-09-15T03:04:52.569Z,16.62
2022-09-15T03:07:21.602Z,16.64
2022-09-15T03:09:49.869Z,16.65
2022-09-15T03:12:17.877Z,16.66
2022-09-15T03:14:50.357Z,16.67
2022-09-15T03:17:18.557Z,16.69
2022-09-15T03:19:46.663Z,16.70
2022-09-15T03:22:14.691Z,16.67
2022-09-15T03:24:45.657Z,16.67
2022-09-15T03:27:14.599Z,16.65
2022-09-15T03:29:42.620Z,16.63
2022-09-15T03:32:12.052Z,16.52
2022-09-15T03:34:40.291Z,16.42
2022-09-15T03:37:08.879Z,16.33
2022-09-15T03:39:37.369Z,16.28
2022-09-15T03:42:05.710Z,16.19
2022-09-15T03:44:36.235Z,16.09
2022-09-15T03:47:04.898Z,16.07
2022-09-15T03:49:36.650Z,16.07
2022-09-15T03:52:04.699Z,16.04
2022-09-15T03:54:32.906Z,15.97
2022-09-15T03:57:00.985Z,15.96
2022-09-15T03:59:31.908Z,15.95
2022-09-15T04:02:00.121Z,15.87
2022-09-15T04:04:28.241Z,15.88
2022-09-15T04:06:59.900Z,15.97
2022-09-15T04:09:28.350Z,15.89
2022-09-15T04:11:56.321Z,15.87
2022-09-15T04:14:24.326Z,15.84
2022-09-15T04:16:52.417Z,15.88
2022-09-15T04:19:22.944Z,15.82
2022-09-15T04:21:53.209Z,15.84
2022-09-15T04:24:24.899Z,15.79
2022-09-15T04:26:53.025Z,15.69
2022-09-15T04:29:23.553Z,15.56
2022-09-15T04:31:53.038Z,15.50
2022-09-15T04:34:21.128Z,15.36
2022-09-15T04:36:49.101Z,15.27
2022-09-15T04:39:17.460Z,15.18
2022-09-15T04:41:46.683Z,15.08
2022-09-15T04:44:14.885Z,15.00
2022-09-15T04:46:42.794Z,14.91
2022-09-15T04:49:10.859Z,14.96
2022-09-15T04:51:39.616Z,14.82
2022-09-15T04:54:10.026Z,14.83
2022-09-15T04:56:39.936Z,14.90
2022-09-15T04:59:15.590Z,14.86
2022-09-15T05:01:44.248Z,14.80
2022-09-15T05:04:12.442Z,14.78
2022-09-15T05:06:40.490Z,14.76
2022-09-15T05:09:10.520Z,14.71
2022-09-15T05:11:39.210Z,14.67
2022-09-15T05:14:09.688Z,14.71
2022-09-15T05:16:40.520Z,14.70
2022-09-15T05:19:12.094Z,14.64
2022-09-15T05:21:40.162Z,14.58
2022-09-15T05:24:08.492Z,14.56
2022-09-15T05:26:36.669Z,14.48
2022-09-15T05:29:04.891Z,14.44
2022-09-15T05:31:35.049Z,14.40
2022-09-15T05:34:06.463Z,14.32
2022-09-15T05:36:34.765Z,14.31
2022-09-15T05:39:05.202Z,14.22
2022-09-15T05:41:33.702Z,14.16
2022-09-15T05:44:01.557Z,14.13
2022-09-15T05:46:30.128Z,14.07
2022-09-15T05:49:01.827Z,14.04
2022-09-15T05:51:30.183Z,14.08
2022-09-15T05:53:58.125Z,14.01
2022-09-15T05:56:26.164Z,13.97
2022-09-15T05:58:54.095Z,13.96
2022-09-15T06:01:24.146Z,13.90
2022-09-15T06:03:53.291Z,13.94
2022-09-15T06:06:23.735Z,13.90
2022-09-15T06:08:58.062Z,13.86
2022-09-15T06:11:29.548Z,13.80
2022-09-15T06:14:00.325Z,13.84
2022-09-15T06:16:32.893Z,13.81
2022-09-15T06:19:01.527Z,13.86
2022-09-15T06:21:33.591Z,13.74
2022-09-15T06:24:07.298Z,13.63
2022-09-15T06:26:35.826Z,13.65
2022-09-15T06:29:07.520Z,13.57
2022-09-15T06:31:36.607Z,13.61
2022-09-15T06:34:05.488Z,13.52
2022-09-15T06:36:35.046Z,13.55
2022-09-15T06:42:09.522Z,13.49
2022-09-15T06:44:42.897Z,13.52
2022-09-15T06:47:11.094Z,13.53
2022-09-15T06:49:39.008Z,13.59
2022-09-15T06:52:07.467Z,13.61
2022-09-15T06:54:35.371Z,13.66
2022-09-15T06:57:07.365Z,13.65
2022-09-15T06:59:35.470Z,13.68
2022-09-15T07:02:05.261Z,13.72
2022-09-15T07:04:37.029Z,13.79
2022-09-15T07:07:05.216Z,13.99
2022-09-15T07:09:33.260Z,14.02
2022-09-15T07:12:01.309Z,14.07
2022-09-15T07:14:31.183Z,14.13
2022-09-15T07:16:59.295Z,14.20
2022-09-15T07:19:27.466Z,14.23
2022-09-15T07:21:55.439Z,14.26
2022-09-15T07:24:23.419Z,14.27
2022-09-15T07:26:52.005Z,14.46
2022-09-15T07:29:22.363Z,14.43
2022-09-15T07:31:51.953Z,14.57
2022-09-15T07:34:19.999Z,14.52
2022-09-15T07:36:48.128Z,14.59
2022-09-15T07:39:16.122Z,14.67
2022-09-15T07:41:46.298Z,14.71
2022-09-15T07:44:14.550Z,14.79
2022-09-15T07:46:43.031Z,14.78
2022-09-15T07:49:12.879Z,14.96
2022-09-15T07:51:41.132Z,15.01
2022-09-15T07:54:11.365Z,14.93
2022-09-15T07:56:39.356Z,15.00
2022-09-15T07:59:08.120Z,15.07
2022-09-15T08:01:39.012Z,15.07
2022-09-15T08:04:07.034Z,15.04
2022-09-15T08:06:37.028Z,15.23
2022-09-15T08:09:05.600Z,15.42
2022-09-15T08:11:34.016Z,15.36
2022-09-15T08:14:03.303Z,15.45
2022-09-15T08:16:32.060Z,15.60
2022-09-15T08:19:00.466Z,15.68
2022-09-15T08:21:29.150Z,15.64
2022-09-15T08:24:01.229Z,15.54
2022-09-15T08:26:30.842Z,15.62
2022-09-15T08:28:59.526Z,15.61
2022-09-15T08:31:29.836Z,15.75
2022-09-15T08:33:58.012Z,16.07
2022-09-15T08:36:27.726Z,16.12
2022-09-15T08:38:59.751Z,16.10
2022-09-15T08:41:32.989Z,16.21
2022-09-15T08:44:06.002Z,15.94
2022-09-15T08:46:39.179Z,15.96
2022-09-15T08:49:14.123Z,16.13
2022-09-15T08:51:46.241Z,16.31
2022-09-15T08:54:20.630Z,16.41
2022-09-15T08:56:49.789Z,16.32
2022-09-15T08:59:19.387Z,16.60
2022-09-15T09:02:33.143Z,16.66
2022-09-15T09:05:11.529Z,16.79
2022-09-15T09:08:06.123Z,16.77
2022-09-15T09:10:46.807Z,16.90
2022-09-15T09:13:25.641Z,17.00
2022-09-15T09:16:06.843Z,16.94
2022-09-15T09:18:49.518Z,16.94
2022-09-15T09:21:26.620Z,16.86
2022-09-15T09:24:02.359Z,17.06
2022-09-15T09:26:35.035Z,16.99
2022-09-15T09:29:09.289Z,16.96
2022-09-15T09:31:37.495Z,17.04
2022-09-15T09:34:17.702Z,17.09
2022-09-15T09:36:45.891Z,17.11
2022-09-15T09:39:15.988Z,17.13
2022-09-15T09:41:46.372Z,17.12
2022-09-15T09:44:16.123Z,17.20
2022-09-15T09:46:44.983Z,17.38
2022-09-15T09:49:22.993Z,17.59
2022-09-15T09:51:52.968Z,17.58
2022-09-15T09:54:25.097Z,17.72
2022-09-15T09:56:55.877Z,18.08
2022-09-15T09:59:41.385Z,18.13
2022-09-15T10:02:18.803Z,18.30
2022-09-15T10:04:49.506Z,18.63
2022-09-15T10:07:19.794Z,18.74
2022-09-15T10:09:59.490Z,19.07
2022-09-15T10:12:34.613Z,19.82
2022-09-15T10:15:08.781Z,20.17
2022-09-15T10:17:43.660Z,20.28
2022-09-15T10:20:26.138Z,20.72
2022-09-15T10:23:04.894Z,21.23
2022-09-15T10:25:58.467Z,21.03
2022-09-15T10:28:28.581Z,21.31
2022-09-15T10:31:07.932Z,22.03
2022-09-15T10:33:38.011Z,22.67
2022-09-15T10:36:08.723Z,23.22
2022-09-15T10:38:47.797Z,23.53
2022-09-15T10:41:29.803Z,23.53
2022-09-15T10:44:15.058Z,23.73
2022-09-15T10:46:53.828Z,23.47
2022-09-15T10:49:38.577Z,23.47
2022-09-15T10:52:18.531Z,22.56
2022-09-15T10:55:02.257Z,22.90
2022-09-15T10:57:49.891Z,24.27
2022-09-15T11:00:24.113Z,25.68
2022-09-15T11:03:25.885Z,26.06
2022-09-15T11:06:05.055Z,26.37
2022-09-15T11:08:50.699Z,27.02
2022-09-15T11:11:29.144Z,27.63
2022-09-15T11:14:16.586Z,27.90
2022-09-15T11:16:57.255Z,28.01
2022-09-15T11:19:42.384Z,27.05
2022-09-15T11:22:18.247Z,27.10
2022-09-15T11:24:52.603Z,26.01
2022-09-15T11:27:27.533Z,25.90
2022-09-15T11:30:06.086Z,25.89
2022-09-15T11:32:42.595Z,24.74
2022-09-15T11:35:35.396Z,23.45
2022-09-15T11:38:14.904Z,23.35
2022-09-15T11:43:17.542Z,25.29
2022-09-15T11:45:49.760Z,25.40
2022-09-15T11:48:23.505Z,26.48
2022-09-15T11:50:56.723Z,26.32
2022-09-15T11:53:33.550Z,26.32
2022-09-15T11:56:10.481Z,24.95
2022-09-15T11:58:55.128Z,24.79
2022-09-15T12:01:29.581Z,24.64
2022-09-15T12:04:02.055Z,25.19
2022-09-15T12:06:35.937Z,24.62
2022-09-15T12:09:06.892Z,23.12
2022-09-15T12:11:37.561Z,21.86
2022-09-15T12:14:08.519Z,20.93
2022-09-15T12:16:36.777Z,20.19
2022-09-15T12:19:12.401Z,19.85
2022-09-15T12:21:49.467Z,19.86
2022-09-15T12:24:24.046Z,19.91
2022-09-15T12:26:52.879Z,20.04
2022-09-15T12:29:41.912Z,20.35
2022-09-15T12:32:23.362Z,20.48
2022-09-15T12:35:13.359Z,20.93
2022-09-15T12:37:47.306Z,21.08
2022-09-15T12:40:38.605Z,21.55
2022-09-15T12:43:22.962Z,21.35
2022-09-15T12:46:00.568Z,21.10
2022-09-15T12:48:32.504Z,20.85
2022-09-15T12:51:04.903Z,21.27
2022-09-15T12:53:37.872Z,21.45
2022-09-15T12:56:08.585Z,21.15
2022-09-15T12:58:39.183Z,21.26
2022-09-15T13:01:33.390Z,21.12
2022-09-15T13:04:25.264Z,21.19
2022-09-15T13:07:38.575Z,20.95
2022-09-15T13:10:29.051Z,20.99
2022-09-15T13:13:08.641Z,21.24
2022-09-15T13:15:42.394Z,21.32
2022-09-15T13:18:14.690Z,21.29
2022-09-15T13:20:53.895Z,21.21
2022-09-15T13:23:25.661Z,21.48
2022-09-15T13:25:57.581Z,21.51
2022-09-15T13:28:27.280Z,21.36
2022-09-15T13:31:09.374Z,21.37
2022-09-15T13:40:39.315Z,21.23
2022-09-15T13:43:41.199Z,21.52
2022-09-15T13:46:22.933Z,22.00
2022-09-15T13:49:02.657Z,22.18
2022-09-15T13:51:33.411Z,22.09
2022-09-15T13:54:06.437Z,21.75
2022-09-15T13:56:39.943Z,21.61
2022-09-15T13:59:16.786Z,21.56
2022-09-15T14:01:45.941Z,21.45
2022-09-15T14:04:17.976Z,21.23
2022-09-15T14:06:51.651Z,21.38
2022-09-15T14:09:22.729Z,21.45
2022-09-15T14:11:55.348Z,21.46
2022-09-15T14:14:39.583Z,21.67
2022-09-15T14:17:20.197Z,21.30
2022-09-15T14:19:52.040Z,21.12
2022-09-15T14:22:27.093Z,20.86
2022-09-15T14:24:58.724Z,20.73
2022-09-15T14:27:31.567Z,20.39
2022-09-15T14:30:03.375Z,20.39
2022-09-15T14:32:36.981Z,20.36
2022-09-15T14:35:08.816Z,20.37
2022-09-15T14:37:37.296Z,20.22
2022-09-15T14:40:20.583Z,20.10
2022-09-15T14:42:51.309Z,19.89
2022-09-15T14:48:16.851Z,19.84
2022-09-15T14:50:48.261Z,19.96
2022-09-15T14:53:20.369Z,20.22
2022-09-15T14:55:57.673Z,20.31
2022-09-15T14:58:30.989Z,20.37
2022-09-15T15:01:02.459Z,20.55
2022-09-15T15:03:36.050Z,20.64
2022-09-15T15:09:07.371Z,20.38
2022-09-15T15:11:37.047Z,20.10
2022-09-15T15:14:09.582Z,19.90
2022-09-15T15:16:53.135Z,19.73
2022-09-15T15:19:40.595Z,19.57
2022-09-15T15:22:18.395Z,19.49
2022-09-15T15:24:49.534Z,19.56
2022-09-15T15:27:42.616Z,19.54
2022-09-15T15:30:46.925Z,19.48
2022-09-15T15:33:29.977Z,19.31
2022-09-15T15:36:03.787Z,19.27
2022-09-15T15:38:37.231Z,19.14
2022-09-15T15:41:09.095Z,19.11
2022-09-15T15:43:37.533Z,19.17
2022-09-15T15:46:08.554Z,19.11
2022-09-15T15:48:38.543Z,19.08
2022-09-15T15:51:09.209Z,19.15
2022-09-15T15:53:40.055Z,19.08
2022-09-15T15:56:09.088Z,19.06
2022-09-15T15:58:36.974Z,19.06
2022-09-15T16:01:05.171Z,19.14
2022-09-15T16:03:33.144Z,19.13
2022-09-15T16:06:04.115Z,19.10
2022-09-15T16:08:40.044Z,19.09
2022-09-15T16:11:11.955Z,19.03
2022-09-15T16:13:42.971Z,18.96
2022-09-15T16:16:16.923Z,18.91
2022-09-15T16:18:48.293Z,18.87
2022-09-15T16:21:19.351Z,18.87
2022-09-15T16:23:48.988Z,18.89
2022-09-15T16:26:21.547Z,18.90
2022-09-15T16:28:49.587Z,18.83
2022-09-15T16:31:17.845Z,18.68
2022-09-15T16:33:46.574Z,18.62
2022-09-15T16:36:15.756Z,18.50
2022-09-15T16:38:44.175Z,18.41
2022-09-15T16:44:18.688Z,18.10
2022-09-15T16:46:46.869Z,17.98
2022-09-15T16:49:14.874Z,17.86
2022-09-15T16:51:43.814Z,17.71
2022-09-15T16:54:17.735Z,17.61
2022-09-15T16:56:48.272Z,17.54
2022-09-15T16:59:18.157Z,17.43
2022-09-15T17:01:46.302Z,17.38
2022-09-15T17:04:19.016Z,17.33
2022-09-15T17:06:47.567Z,17.30
2022-09-15T17:09:17.732Z,17.26
2022-09-15T17:11:46.077Z,17.23
2022-09-15T17:14:18.464Z,17.18
2022-09-15T17:16:52.807Z,17.15
2022-09-15T17:19:21.045Z,17.10
2022-09-15T17:21:52.772Z,16.99
2022-09-15T17:24:20.810Z,16.95
2022-09-15T17:26:51.989Z,16.88
2022-09-15T17:29:21.590Z,16.88
2022-09-15T17:31:49.708Z,16.81
2022-09-15T17:34:18.283Z,16.77
2022-09-15T17:36:46.340Z,16.73
2022-09-15T17:39:14.926Z,16.67
2022-09-15T17:41:44.522Z,16.60
2022-09-15T17:44:12.460Z,16.57
2022-09-15T17:46:41.742Z,16.59
2022-09-15T17:49:10.028Z,16.52
2022-09-15T17:51:40.065Z,16.45
2022-09-15T17:54:10.789Z,16.37
2022-09-15T17:56:38.902Z,16.30
2022-09-15T17:59:14.274Z,16.26
2022-09-15T18:01:45.602Z,16.24
2022-09-15T18:04:13.855Z,16.15
2022-09-15T18:06:45.504Z,16.06
2022-09-15T18:09:14.831Z,16.07
2022-09-15T18:11:42.837Z,16.06
2022-09-15T18:14:11.806Z,16.00
2022-09-15T18:16:41.469Z,15.96
2022-09-15T18:19:13.544Z,15.92
2022-09-15T18:21:41.615Z,15.91
2022-09-15T18:24:10.641Z,15.90
2022-09-15T18:26:38.593Z,15.94
2022-09-15T18:29:07.011Z,15.96
2022-09-15T18:31:34.994Z,16.03
2022-09-15T18:34:03.035Z,16.05
2022-09-15T18:36:35.364Z,16.10
2022-09-15T18:39:05.117Z,16.15
2022-09-15T18:41:36.147Z,16.12
2022-09-15T18:44:08.430Z,16.12
2022-09-15T18:46:39.250Z,16.13
2022-09-15T18:49:10.537Z,16.13
2022-09-15T18:51:51.168Z,16.12
2022-09-15T18:54:19.910Z,16.10
2022-09-15T18:56:47.967Z,16.07
2022-09-15T18:59:19.388Z,16.08
2022-09-15T19:01:47.482Z,16.06
2022-09-15T19:04:15.646Z,16.04
2022-09-15T19:06:45.506Z,16.03
2022-09-15T19:09:13.543Z,15.99
2022-09-15T19:11:41.811Z,16.00
2022-09-15T19:14:09.656Z,16.00
2022-09-15T19:16:56.516Z,16.00
2022-09-15T19:19:27.159Z,15.98
2022-09-15T19:21:59.769Z,15.94
2022-09-15T19:24:33.589Z,15.94
2022-09-15T19:27:02.101Z,15.90
2022-09-15T19:29:34.637Z,15.95
2022-09-15T19:32:02.826Z,16.08
2022-09-15T19:34:31.593Z,16.08
2022-09-15T19:37:00.936Z,16.13
2022-09-15T19:39:29.192Z,16.12
2022-09-15T19:41:57.304Z,16.02
2022-09-15T19:44:25.768Z,15.91
2022-09-15T19:46:53.893Z,15.81
2022-09-15T19:49:22.551Z,15.69
2022-09-15T19:51:55.430Z,15.56
2022-09-15T19:54:27.239Z,15.52
2022-09-15T19:56:56.004Z,15.45
2022-09-15T19:59:28.690Z,15.42
2022-09-15T20:01:58.450Z,15.43
2022-09-15T20:04:26.735Z,15.33
2022-09-15T20:06:54.809Z,15.29
2022-09-15T20:09:23.290Z,15.26
2022-09-15T20:11:52.776Z,15.21
2022-09-15T20:14:23.231Z,15.20
2022-09-15T20:16:56.162Z,15.18
2022-09-15T20:19:26.748Z,15.12
2022-09-15T20:21:54.715Z,15.18
2022-09-15T20:24:23.788Z,15.21
2022-09-15T20:26:53.205Z,15.17
2022-09-15T20:29:24.266Z,15.15
2022-09-15T20:31:52.858Z,15.13
2022-09-15T20:34:20.772Z,15.10
2022-09-15T20:36:49.104Z,15.12
2022-09-15T20:39:22.307Z,15.11
2022-09-15T20:41:54.979Z,15.07
2022-09-15T20:44:23.027Z,15.05
2022-09-15T20:46:51.321Z,15.05
2022-09-15T20:49:19.596Z,15.02
2022-09-15T20:51:51.583Z,15.02
2022-09-15T20:54:19.531Z,15.00
2022-09-15T20:56:49.815Z,14.95
2022-09-15T20:59:19.473Z,14.93
2022-09-15T21:01:49.777Z,14.92
2022-09-15T21:04:20.934Z,14.92
2022-09-15T21:06:51.341Z,14.89
2022-09-15T21:09:19.427Z,14.90
2022-09-15T21:11:52.756Z,14.87
2022-09-15T21:14:22.727Z,14.82
2022-09-15T21:16:50.840Z,14.82
2022-09-15T21:19:20.847Z,14.80
2022-09-15T21:21:51.250Z,14.80
2022-09-15T21:24:19.233Z,14.79
2022-09-15T21:27:04.688Z,14.78
2022-09-15T21:29:34.205Z,14.74
2022-09-15T21:32:02.364Z,14.69
2022-09-15T21:34:31.776Z,14.66
2022-09-15T21:37:01.829Z,14.63
2022-09-15T21:39:32.576Z,14.61
2022-09-15T21:45:10.261Z,14.55
2022-09-15T21:47:38.241Z,14.54
2022-09-15T21:50:09.457Z,14.53
2022-09-15T21:52:37.407Z,14.49
2022-09-15T21:55:08.150Z,14.48
2022-09-15T21:57:38.841Z,14.48
2022-09-15T22:00:10.352Z,14.49
2022-09-15T22:02:38.310Z,14.47
2022-09-15T22:05:07.008Z,14.43
2022-09-15T22:07:35.297Z,14.39
2022-09-15T22:10:03.257Z,14.32
2022-09-15T22:12:31.313Z,14.35
2022-09-15T22:14:59.395Z,14.34
2022-09-15T22:17:28.874Z,14.36
2022-09-15T22:19:57.032Z,14.34
2022-09-15T22:22:25.487Z,14.31
2022-09-15T22:24:53.395Z,14.27
2022-09-15T22:27:21.781Z,14.24
2022-09-15T22:29:49.708Z,14.22
2022-09-15T22:32:20.081Z,14.20
2022-09-15T22:34:49.719Z,14.16
2022-09-15T22:37:18.061Z,14.14
2022-09-15T22:39:58.487Z,14.11
2022-09-15T22:42:27.808Z,14.08
2022-09-15T22:44:55.762Z,14.05
2022-09-15T22:47:24.000Z,14.03
2022-09-15T22:49:53.499Z,14.05
2022-09-15T22:52:21.759Z,14.04
2022-09-15T22:54:49.809Z,14.03
2022-09-15T22:57:20.057Z,14.02
2022-09-15T22:59:48.051Z,13.99
2022-09-15T23:02:16.210Z,14.00
2022-09-15T23:04:46.646Z,13.97
2022-09-15T23:07:16.091Z,13.94
2022-09-15T23:09:44.138Z,13.92
2022-09-15T23:12:12.230Z,13.91
2022-09-15T23:14:40.164Z,13.91
2022-09-15T23:17:08.243Z,13.89
2022-09-15T23:19:36.199Z,13.85
2022-09-15T23:22:04.068Z,13.82
2022-09-15T23:24:35.661Z,13.80
2022-09-15T23:27:04.519Z,13.77
2022-09-15T23:29:33.123Z,13.74
2022-09-15T23:32:01.362Z,13.71
2022-09-15T23:34:29.244Z,13.72
2022-09-15T23:36:59.887Z,13.70
2022-09-15T23:39:28.075Z,13.68
2022-09-15T23:41:57.721Z,13.68
2022-09-15T23:44:25.799Z,13.65
2022-09-15T23:46:54.010Z,13.66
2022-09-15T23:49:22.100Z,13.68
2022-09-15T23:51:50.245Z,13.69
2022-09-15T23:54:18.428Z,13.68
2022-09-15T23:56:46.819Z,13.68
2022-09-15T23:59:16.698Z,13.59
